sensor_id;sensor_type;location;lat;lon;timestamp;P1;durP1;ratioP1;P2;durP2;ratioP2
20609;SDS011;10463;52.378;9.688;2022-10-14T00:00:26;1.53;;;0.97;;
20609;SDS011;10463;52.378;9.688;2022-10-14T00:03:12;1.50;;;1.03;;
20609;SDS011;10463;52.378;9.688;2022-10-14T00:05:57;1.57;;;1.10;;
20609;SDS011;10463;52.378;9.688;2022-10-14T00:08:42;1.40;;;0.90;;
20609;SDS011;10463;52.378;9.688;2022-10-14T00:11:32;1.40;;;0.90;;
20609;SDS011;10463;52.378;9.688;2022-10-14T00:14:20;1.50;;;1.10;;
20609;SDS011;10463;52.378;9.688;2022-10-14T00:17:06;1.53;;;1.10;;
20609;SDS011;10463;52.378;9.688;2022-10-14T00:19:53;1.80;;;1.20;;
20609;SDS011;10463;52.378;9.688;2022-10-14T00:22:37;1.83;;;1.50;;
20609;SDS011;10463;52.378;9.688;2022-10-14T00:25:22;2.43;;;1.70;;
20609;SDS011;10463;52.378;9.688;2022-10-14T00:28:09;6.30;;;2.53;;
20609;SDS011;10463;52.378;9.688;2022-10-14T00:30:54;2.30;;;1.80;;
20609;SDS011;10463;52.378;9.688;2022-10-14T00:33:39;3.50;;;2.90;;
20609;SDS011;10463;52.378;9.688;2022-10-14T00:36:26;3.00;;;2.70;;
20609;SDS011;10463;52.378;9.688;2022-10-14T00:39:11;4.10;;;2.80;;
20609;SDS011;10463;52.378;9.688;2022-10-14T00:41:56;3.70;;;3.20;;
20609;SDS011;10463;52.378;9.688;2022-10-14T00:45:04;3.50;;;3.20;;
20609;SDS011;10463;52.378;9.688;2022-10-14T00:47:55;3.87;;;3.00;;
20609;SDS011;10463;52.378;9.688;2022-10-14T00:50:42;4.77;;;4.37;;
20609;SDS011;10463;52.378;9.688;2022-10-14T00:53:29;3.83;;;3.43;;
20609;SDS011;10463;52.378;9.688;2022-10-14T00:56:16;4.50;;;4.10;;
20609;SDS011;10463;52.378;9.688;2022-10-14T00:59:06;4.53;;;4.13;;
20609;SDS011;10463;52.378;9.688;2022-10-14T01:01:51;4.67;;;4.17;;
20609;SDS011;10463;52.378;9.688;2022-10-14T01:04:38;4.27;;;3.87;;
20609;SDS011;10463;52.378;9.688;2022-10-14T01:07:30;5.77;;;4.63;;
20609;SDS011;10463;52.378;9.688;2022-10-14T01:10:32;4.20;;;3.80;;
20609;SDS011;10463;52.378;9.688;2022-10-14T01:13:24;5.53;;;4.10;;
20609;SDS011;10463;52.378;9.688;2022-10-14T01:16:17;5.60;;;3.80;;
20609;SDS011;10463;52.378;9.688;2022-10-14T01:19:14;4.40;;;3.50;;
20609;SDS011;10463;52.378;9.688;2022-10-14T01:22:23;4.23;;;3.83;;
20609;SDS011;10463;52.378;9.688;2022-10-14T01:25:17;4.63;;;4.00;;
20609;SDS011;10463;52.378;9.688;2022-10-14T01:28:22;3.67;;;3.30;;
20609;SDS011;10463;52.378;9.688;2022-10-14T01:31:14;5.43;;;3.53;;
20609;SDS011;10463;52.378;9.688;2022-10-14T01:34:05;4.53;;;4.10;;
20609;SDS011;10463;52.378;9.688;2022-10-14T01:36:55;4.33;;;3.40;;
20609;SDS011;10463;52.378;9.688;2022-10-14T01:39:46;4.00;;;3.60;;
20609;SDS011;10463;52.378;9.688;2022-10-14T01:42:36;5.87;;;3.90;;
20609;SDS011;10463;52.378;9.688;2022-10-14T01:45:23;3.87;;;3.37;;
20609;SDS011;10463;52.378;9.688;2022-10-14T01:48:12;4.13;;;3.73;;
20609;SDS011;10463;52.378;9.688;2022-10-14T01:51:03;3.97;;;3.60;;
20609;SDS011;10463;52.378;9.688;2022-10-14T01:53:53;3.60;;;3.30;;
20609;SDS011;10463;52.378;9.688;2022-10-14T01:56:43;4.13;;;3.73;;
20609;SDS011;10463;52.378;9.688;2022-10-14T01:59:31;4.10;;;3.70;;
20609;SDS011;10463;52.378;9.688;2022-10-14T02:02:17;5.10;;;3.40;;
20609;SDS011;10463;52.378;9.688;2022-10-14T02:05:04;4.70;;;4.03;;
20609;SDS011;10463;52.378;9.688;2022-10-14T02:07:57;4.10;;;3.70;;
20609;SDS011;10463;52.378;9.688;2022-10-14T02:11:00;3.77;;;3.40;;
20609;SDS011;10463;52.378;9.688;2022-10-14T02:14:00;5.23;;;3.80;;
20609;SDS011;10463;52.378;9.688;2022-10-14T02:16:57;4.53;;;3.70;;
20609;SDS011;10463;52.378;9.688;2022-10-14T02:19:47;5.03;;;4.03;;
20609;SDS011;10463;52.378;9.688;2022-10-14T02:22:39;4.43;;;4.03;;
20609;SDS011;10463;52.378;9.688;2022-10-14T02:25:30;3.87;;;3.57;;
20609;SDS011;10463;52.378;9.688;2022-10-14T02:28:18;4.40;;;3.97;;
20609;SDS011;10463;52.378;9.688;2022-10-14T02:31:08;4.30;;;3.90;;
20609;SDS011;10463;52.378;9.688;2022-10-14T02:34:02;4.03;;;3.27;;
20609;SDS011;10463;52.378;9.688;2022-10-14T02:36:51;4.73;;;4.20;;
20609;SDS011;10463;52.378;9.688;2022-10-14T02:39:42;4.80;;;4.40;;
20609;SDS011;10463;52.378;9.688;2022-10-14T02:42:31;4.40;;;4.00;;
20609;SDS011;10463;52.378;9.688;2022-10-14T02:45:17;6.60;;;4.10;;
20609;SDS011;10463;52.378;9.688;2022-10-14T02:48:03;4.43;;;3.77;;
20609;SDS011;10463;52.378;9.688;2022-10-14T02:50:50;8.90;;;4.10;;
20609;SDS011;10463;52.378;9.688;2022-10-14T02:53:35;4.20;;;3.80;;
20609;SDS011;10463;52.378;9.688;2022-10-14T02:56:21;4.00;;;3.53;;
20609;SDS011;10463;52.378;9.688;2022-10-14T02:59:07;4.20;;;3.80;;
20609;SDS011;10463;52.378;9.688;2022-10-14T03:01:52;5.00;;;3.87;;
20609;SDS011;10463;52.378;9.688;2022-10-14T03:04:38;4.10;;;3.70;;
20609;SDS011;10463;52.378;9.688;2022-10-14T03:07:24;4.10;;;3.70;;
20609;SDS011;10463;52.378;9.688;2022-10-14T03:10:10;4.53;;;3.80;;
20609;SDS011;10463;52.378;9.688;2022-10-14T03:12:56;4.13;;;3.80;;
20609;SDS011;10463;52.378;9.688;2022-10-14T03:15:47;3.87;;;3.57;;
20609;SDS011;10463;52.378;9.688;2022-10-14T03:18:34;4.93;;;4.50;;
20609;SDS011;10463;52.378;9.688;2022-10-14T03:21:27;3.83;;;3.50;;
20609;SDS011;10463;52.378;9.688;2022-10-14T03:24:11;4.10;;;3.70;;
20609;SDS011;10463;52.378;9.688;2022-10-14T03:26:58;4.40;;;4.00;;
20609;SDS011;10463;52.378;9.688;2022-10-14T03:29:45;4.63;;;4.13;;
20609;SDS011;10463;52.378;9.688;2022-10-14T03:32:36;4.60;;;4.20;;
20609;SDS011;10463;52.378;9.688;2022-10-14T03:35:44;3.97;;;3.60;;
20609;SDS011;10463;52.378;9.688;2022-10-14T03:38:32;4.60;;;4.00;;
20609;SDS011;10463;52.378;9.688;2022-10-14T03:41:18;4.87;;;3.30;;
20609;SDS011;10463;52.378;9.688;2022-10-14T03:44:04;4.00;;;3.60;;
20609;SDS011;10463;52.378;9.688;2022-10-14T03:46:53;4.07;;;3.67;;
20609;SDS011;10463;52.378;9.688;2022-10-14T03:49:44;3.80;;;3.50;;
20609;SDS011;10463;52.378;9.688;2022-10-14T03:52:38;4.03;;;3.23;;
20609;SDS011;10463;52.378;9.688;2022-10-14T03:55:34;4.00;;;3.60;;
20609;SDS011;10463;52.378;9.688;2022-10-14T03:58:20;3.93;;;3.53;;
20609;SDS011;10463;52.378;9.688;2022-10-14T04:01:10;4.07;;;3.67;;
20609;SDS011;10463;52.378;9.688;2022-10-14T04:04:15;4.73;;;4.23;;
20609;SDS011;10463;52.378;9.688;2022-10-14T04:07:00;5.07;;;3.80;;
20609;SDS011;10463;52.378;9.688;2022-10-14T04:09:46;4.43;;;4.03;;
20609;SDS011;10463;52.378;9.688;2022-10-14T04:12:31;4.20;;;3.80;;
20609;SDS011;10463;52.378;9.688;2022-10-14T04:15:33;4.90;;;3.70;;
20609;SDS011;10463;52.378;9.688;2022-10-14T04:18:33;4.37;;;3.77;;
20609;SDS011;10463;52.378;9.688;2022-10-14T04:21:21;4.10;;;3.70;;
20609;SDS011;10463;52.378;9.688;2022-10-14T04:24:09;4.20;;;3.73;;
20609;SDS011;10463;52.378;9.688;2022-10-14T04:27:01;3.70;;;3.30;;
20609;SDS011;10463;52.378;9.688;2022-10-14T04:29:56;4.50;;;3.80;;
20609;SDS011;10463;52.378;9.688;2022-10-14T04:32:46;3.70;;;3.30;;
20609;SDS011;10463;52.378;9.688;2022-10-14T04:35:31;4.20;;;3.80;;
20609;SDS011;10463;52.378;9.688;2022-10-14T04:38:17;4.00;;;3.33;;
20609;SDS011;10463;52.378;9.688;2022-10-14T04:41:10;4.33;;;3.93;;
20609;SDS011;10463;52.378;9.688;2022-10-14T04:44:00;3.83;;;3.53;;
20609;SDS011;10463;52.378;9.688;2022-10-14T04:47:01;4.20;;;3.80;;
20609;SDS011;10463;52.378;9.688;2022-10-14T04:49:47;4.10;;;3.67;;
20609;SDS011;10463;52.378;9.688;2022-10-14T04:52:36;4.20;;;3.67;;
20609;SDS011;10463;52.378;9.688;2022-10-14T04:55:28;4.67;;;3.73;;
20609;SDS011;10463;52.378;9.688;2022-10-14T04:58:13;4.63;;;3.80;;
20609;SDS011;10463;52.378;9.688;2022-10-14T05:01:00;4.23;;;3.83;;
20609;SDS011;10463;52.378;9.688;2022-10-14T05:03:52;4.47;;;3.70;;
20609;SDS011;10463;52.378;9.688;2022-10-14T05:06:37;4.47;;;4.00;;
20609;SDS011;10463;52.378;9.688;2022-10-14T05:09:24;4.90;;;4.40;;
20609;SDS011;10463;52.378;9.688;2022-10-14T05:12:11;4.80;;;4.30;;
20609;SDS011;10463;52.378;9.688;2022-10-14T05:15:05;5.30;;;4.20;;
20609;SDS011;10463;52.378;9.688;2022-10-14T05:18:05;5.50;;;4.40;;
20609;SDS011;10463;52.378;9.688;2022-10-14T05:21:06;4.20;;;3.80;;
20609;SDS011;10463;52.378;9.688;2022-10-14T05:24:16;5.53;;;4.47;;
20609;SDS011;10463;52.378;9.688;2022-10-14T05:27:03;4.10;;;3.70;;
20609;SDS011;10463;52.378;9.688;2022-10-14T05:29:50;4.70;;;4.27;;
20609;SDS011;10463;52.378;9.688;2022-10-14T05:32:35;5.60;;;4.97;;
20609;SDS011;10463;52.378;9.688;2022-10-14T05:35:23;5.13;;;4.63;;
20609;SDS011;10463;52.378;9.688;2022-10-14T05:38:08;4.60;;;4.20;;
20609;SDS011;10463;52.378;9.688;2022-10-14T05:40:56;5.03;;;4.53;;
20609;SDS011;10463;52.378;9.688;2022-10-14T05:43:41;5.33;;;4.83;;
20609;SDS011;10463;52.378;9.688;2022-10-14T05:46:28;5.17;;;4.67;;
20609;SDS011;10463;52.378;9.688;2022-10-14T05:49:13;4.17;;;3.77;;
20609;SDS011;10463;52.378;9.688;2022-10-14T05:52:00;6.53;;;5.00;;
20609;SDS011;10463;52.378;9.688;2022-10-14T05:54:45;5.43;;;4.93;;
20609;SDS011;10463;52.378;9.688;2022-10-14T05:57:34;4.30;;;3.90;;
20609;SDS011;10463;52.378;9.688;2022-10-14T06:00:20;5.33;;;4.83;;
20609;SDS011;10463;52.378;9.688;2022-10-14T06:03:11;4.33;;;3.93;;
20609;SDS011;10463;52.378;9.688;2022-10-14T06:05:57;5.77;;;4.60;;
20609;SDS011;10463;52.378;9.688;2022-10-14T06:08:42;7.10;;;4.90;;
20609;SDS011;10463;52.378;9.688;2022-10-14T06:11:28;4.97;;;4.47;;
20609;SDS011;10463;52.378;9.688;2022-10-14T06:14:13;4.70;;;4.30;;
20609;SDS011;10463;52.378;9.688;2022-10-14T06:16:58;6.80;;;5.00;;
20609;SDS011;10463;52.378;9.688;2022-10-14T06:19:44;4.33;;;3.87;;
20609;SDS011;10463;52.378;9.688;2022-10-14T06:22:28;4.17;;;3.77;;
20609;SDS011;10463;52.378;9.688;2022-10-14T06:25:14;4.77;;;4.23;;
20609;SDS011;10463;52.378;9.688;2022-10-14T06:28:01;4.80;;;4.20;;
20609;SDS011;10463;52.378;9.688;2022-10-14T06:30:48;5.07;;;4.57;;
20609;SDS011;10463;52.378;9.688;2022-10-14T06:33:33;4.90;;;4.50;;
20609;SDS011;10463;52.378;9.688;2022-10-14T06:36:20;5.17;;;4.67;;
20609;SDS011;10463;52.378;9.688;2022-10-14T06:39:05;6.60;;;4.50;;
20609;SDS011;10463;52.378;9.688;2022-10-14T06:41:51;4.27;;;3.87;;
20609;SDS011;10463;52.378;9.688;2022-10-14T06:44:36;4.43;;;4.03;;
20609;SDS011;10463;52.378;9.688;2022-10-14T06:47:21;4.83;;;4.20;;
20609;SDS011;10463;52.378;9.688;2022-10-14T06:50:07;4.87;;;4.43;;
20609;SDS011;10463;52.378;9.688;2022-10-14T06:52:53;4.80;;;4.30;;
20609;SDS011;10463;52.378;9.688;2022-10-14T06:55:38;5.63;;;4.93;;
20609;SDS011;10463;52.378;9.688;2022-10-14T06:58:23;4.83;;;4.40;;
20609;SDS011;10463;52.378;9.688;2022-10-14T07:01:08;5.03;;;4.53;;
20609;SDS011;10463;52.378;9.688;2022-10-14T07:03:53;5.23;;;4.73;;
20609;SDS011;10463;52.378;9.688;2022-10-14T07:06:38;6.57;;;4.60;;
20609;SDS011;10463;52.378;9.688;2022-10-14T07:09:24;6.23;;;5.73;;
20609;SDS011;10463;52.378;9.688;2022-10-14T07:12:08;4.83;;;4.40;;
20609;SDS011;10463;52.378;9.688;2022-10-14T07:14:53;5.40;;;4.60;;
20609;SDS011;10463;52.378;9.688;2022-10-14T07:17:38;5.00;;;4.50;;
20609;SDS011;10463;52.378;9.688;2022-10-14T07:20:22;5.27;;;4.77;;
20609;SDS011;10463;52.378;9.688;2022-10-14T07:23:07;6.03;;;4.97;;
20609;SDS011;10463;52.378;9.688;2022-10-14T07:25:56;5.43;;;4.90;;
20609;SDS011;10463;52.378;9.688;2022-10-14T07:28:41;5.43;;;4.73;;
20609;SDS011;10463;52.378;9.688;2022-10-14T07:31:25;5.00;;;4.60;;
20609;SDS011;10463;52.378;9.688;2022-10-14T07:34:13;6.70;;;5.70;;
20609;SDS011;10463;52.378;9.688;2022-10-14T07:36:57;6.07;;;5.40;;
20609;SDS011;10463;52.378;9.688;2022-10-14T07:39:42;5.80;;;5.20;;
20609;SDS011;10463;52.378;9.688;2022-10-14T07:42:29;5.80;;;5.30;;
20609;SDS011;10463;52.378;9.688;2022-10-14T07:45:13;5.03;;;4.57;;
20609;SDS011;10463;52.378;9.688;2022-10-14T07:48:00;6.10;;;4.90;;
20609;SDS011;10463;52.378;9.688;2022-10-14T07:50:48;5.73;;;4.13;;
20609;SDS011;10463;52.378;9.688;2022-10-14T07:53:34;5.60;;;5.10;;
20609;SDS011;10463;52.378;9.688;2022-10-14T07:56:20;5.17;;;4.67;;
20609;SDS011;10463;52.378;9.688;2022-10-14T07:59:07;4.40;;;4.00;;
20609;SDS011;10463;52.378;9.688;2022-10-14T08:01:52;4.73;;;4.23;;
20609;SDS011;10463;52.378;9.688;2022-10-14T08:04:39;4.90;;;4.30;;
20609;SDS011;10463;52.378;9.688;2022-10-14T08:07:24;5.40;;;4.60;;
20609;SDS011;10463;52.378;9.688;2022-10-14T08:10:10;5.00;;;4.50;;
20609;SDS011;10463;52.378;9.688;2022-10-14T08:12:54;4.77;;;4.37;;
20609;SDS011;10463;52.378;9.688;2022-10-14T08:15:42;6.20;;;4.30;;
20609;SDS011;10463;52.378;9.688;2022-10-14T08:18:26;4.60;;;4.20;;
20609;SDS011;10463;52.378;9.688;2022-10-14T08:21:12;5.10;;;4.70;;
20609;SDS011;10463;52.378;9.688;2022-10-14T08:23:58;4.43;;;3.90;;
20609;SDS011;10463;52.378;9.688;2022-10-14T08:26:48;4.53;;;3.73;;
20609;SDS011;10463;52.378;9.688;2022-10-14T08:29:34;4.03;;;3.63;;
20609;SDS011;10463;52.378;9.688;2022-10-14T08:32:21;3.57;;;2.97;;
20609;SDS011;10463;52.378;9.688;2022-10-14T08:35:07;4.10;;;3.70;;
20609;SDS011;10463;52.378;9.688;2022-10-14T08:37:55;4.00;;;3.60;;
20609;SDS011;10463;52.378;9.688;2022-10-14T08:40:50;3.60;;;3.30;;
20609;SDS011;10463;52.378;9.688;2022-10-14T08:43:46;3.80;;;3.40;;
20609;SDS011;10463;52.378;9.688;2022-10-14T08:46:37;3.90;;;3.50;;
20609;SDS011;10463;52.378;9.688;2022-10-14T08:49:27;3.50;;;3.20;;
20609;SDS011;10463;52.378;9.688;2022-10-14T08:52:21;3.33;;;3.03;;
20609;SDS011;10463;52.378;9.688;2022-10-14T08:55:16;4.00;;;3.50;;
20609;SDS011;10463;52.378;9.688;2022-10-14T08:58:10;4.63;;;3.93;;
20609;SDS011;10463;52.378;9.688;2022-10-14T09:01:02;5.20;;;4.70;;
20609;SDS011;10463;52.378;9.688;2022-10-14T09:03:56;5.70;;;4.33;;
20609;SDS011;10463;52.378;9.688;2022-10-14T09:06:45;4.73;;;4.27;;
20609;SDS011;10463;52.378;9.688;2022-10-14T09:09:39;5.13;;;4.40;;
20609;SDS011;10463;52.378;9.688;2022-10-14T09:12:28;4.73;;;3.80;;
20609;SDS011;10463;52.378;9.688;2022-10-14T09:15:17;4.30;;;3.80;;
20609;SDS011;10463;52.378;9.688;2022-10-14T09:18:09;4.33;;;3.90;;
20609;SDS011;10463;52.378;9.688;2022-10-14T09:21:13;4.40;;;4.00;;
20609;SDS011;10463;52.378;9.688;2022-10-14T09:24:17;5.17;;;4.03;;
20609;SDS011;10463;52.378;9.688;2022-10-14T09:27:05;4.67;;;3.70;;
20609;SDS011;10463;52.378;9.688;2022-10-14T09:30:02;4.23;;;3.83;;
20609;SDS011;10463;52.378;9.688;2022-10-14T09:32:53;3.87;;;3.20;;
20609;SDS011;10463;52.378;9.688;2022-10-14T09:35:39;3.80;;;3.40;;
20609;SDS011;10463;52.378;9.688;2022-10-14T09:38:25;3.77;;;3.37;;
20609;SDS011;10463;52.378;9.688;2022-10-14T09:41:12;3.77;;;3.00;;
20609;SDS011;10463;52.378;9.688;2022-10-14T09:44:13;3.67;;;3.27;;
20609;SDS011;10463;52.378;9.688;2022-10-14T09:47:05;3.67;;;3.27;;
20609;SDS011;10463;52.378;9.688;2022-10-14T09:49:55;3.47;;;3.17;;
20609;SDS011;10463;52.378;9.688;2022-10-14T09:52:44;3.30;;;2.70;;
20609;SDS011;10463;52.378;9.688;2022-10-14T09:55:35;2.77;;;2.43;;
20609;SDS011;10463;52.378;9.688;2022-10-14T09:58:28;3.50;;;3.03;;
20609;SDS011;10463;52.378;9.688;2022-10-14T10:01:18;3.30;;;2.73;;
20609;SDS011;10463;52.378;9.688;2022-10-14T10:04:23;5.07;;;3.60;;
20609;SDS011;10463;52.378;9.688;2022-10-14T10:07:23;3.40;;;3.10;;
20609;SDS011;10463;52.378;9.688;2022-10-14T10:10:17;3.57;;;3.27;;
20609;SDS011;10463;52.378;9.688;2022-10-14T10:13:13;3.30;;;2.97;;
20609;SDS011;10463;52.378;9.688;2022-10-14T10:16:15;4.07;;;3.67;;
20609;SDS011;10463;52.378;9.688;2022-10-14T10:19:22;3.03;;;2.57;;
20609;SDS011;10463;52.378;9.688;2022-10-14T10:22:16;3.00;;;2.60;;
20609;SDS011;10463;52.378;9.688;2022-10-14T10:25:23;3.33;;;2.83;;
20609;SDS011;10463;52.378;9.688;2022-10-14T10:28:16;3.97;;;3.30;;
20609;SDS011;10463;52.378;9.688;2022-10-14T10:31:11;3.60;;;2.77;;
20609;SDS011;10463;52.378;9.688;2022-10-14T10:34:44;3.63;;;2.77;;
20609;SDS011;10463;52.378;9.688;2022-10-14T10:37:51;3.73;;;3.13;;
20609;SDS011;10463;52.378;9.688;2022-10-14T10:40:51;3.47;;;3.10;;
20609;SDS011;10463;52.378;9.688;2022-10-14T10:44:05;2.90;;;2.60;;
20609;SDS011;10463;52.378;9.688;2022-10-14T10:47:20;3.40;;;2.97;;
20609;SDS011;10463;52.378;9.688;2022-10-14T10:50:24;3.10;;;2.80;;
20609;SDS011;10463;52.378;9.688;2022-10-14T10:53:22;3.50;;;3.20;;
20609;SDS011;10463;52.378;9.688;2022-10-14T10:56:21;3.20;;;2.90;;
20609;SDS011;10463;52.378;9.688;2022-10-14T10:59:41;2.60;;;2.20;;
20609;SDS011;10463;52.378;9.688;2022-10-14T11:02:51;3.00;;;2.67;;
20609;SDS011;10463;52.378;9.688;2022-10-14T11:05:51;3.37;;;3.07;;
20609;SDS011;10463;52.378;9.688;2022-10-14T11:08:49;2.50;;;2.30;;
20609;SDS011;10463;52.378;9.688;2022-10-14T11:12:04;3.27;;;2.67;;
20609;SDS011;10463;52.378;9.688;2022-10-14T11:15:09;3.10;;;2.50;;
20609;SDS011;10463;52.378;9.688;2022-10-14T11:18:06;2.50;;;2.30;;
20609;SDS011;10463;52.378;9.688;2022-10-14T11:21:03;2.60;;;2.30;;
20609;SDS011;10463;52.378;9.688;2022-10-14T11:23:57;3.40;;;2.27;;
20609;SDS011;10463;52.378;9.688;2022-10-14T11:26:55;3.17;;;2.40;;
20609;SDS011;10463;52.378;9.688;2022-10-14T11:29:57;3.00;;;2.40;;
20609;SDS011;10463;52.378;9.688;2022-10-14T11:33:15;2.60;;;2.40;;
20609;SDS011;10463;52.378;9.688;2022-10-14T11:36:14;3.33;;;2.37;;
20609;SDS011;10463;52.378;9.688;2022-10-14T11:39:17;2.53;;;1.90;;
20609;SDS011;10463;52.378;9.688;2022-10-14T11:42:19;2.80;;;2.20;;
20609;SDS011;10463;52.378;9.688;2022-10-14T11:45:34;2.23;;;1.90;;
20609;SDS011;10463;52.378;9.688;2022-10-14T11:48:37;2.23;;;1.90;;
20609;SDS011;10463;52.378;9.688;2022-10-14T11:51:30;2.80;;;2.10;;
20609;SDS011;10463;52.378;9.688;2022-10-14T11:54:23;2.40;;;1.90;;
20609;SDS011;10463;52.378;9.688;2022-10-14T11:57:19;2.10;;;1.90;;
20609;SDS011;10463;52.378;9.688;2022-10-14T12:00:29;2.37;;;1.77;;
20609;SDS011;10463;52.378;9.688;2022-10-14T12:03:19;2.40;;;2.20;;
20609;SDS011;10463;52.378;9.688;2022-10-14T12:06:14;2.87;;;2.10;;
20609;SDS011;10463;52.378;9.688;2022-10-14T12:09:04;2.40;;;2.17;;
20609;SDS011;10463;52.378;9.688;2022-10-14T12:12:06;2.37;;;2.03;;
20609;SDS011;10463;52.378;9.688;2022-10-14T12:14:56;2.33;;;1.80;;
20609;SDS011;10463;52.378;9.688;2022-10-14T12:17:45;2.33;;;1.90;;
20609;SDS011;10463;52.378;9.688;2022-10-14T12:20:36;2.20;;;1.77;;
20609;SDS011;10463;52.378;9.688;2022-10-14T12:23:31;2.67;;;2.23;;
20609;SDS011;10463;52.378;9.688;2022-10-14T12:26:34;2.20;;;1.93;;
20609;SDS011;10463;52.378;9.688;2022-10-14T12:29:30;2.00;;;1.67;;
20609;SDS011;10463;52.378;9.688;2022-10-14T12:32:21;3.30;;;1.57;;
20609;SDS011;10463;52.378;9.688;2022-10-14T12:38:35;2.20;;;1.50;;
20609;SDS011;10463;52.378;9.688;2022-10-14T12:41:33;3.10;;;2.00;;
20609;SDS011;10463;52.378;9.688;2022-10-14T12:44:24;2.10;;;1.80;;
20609;SDS011;10463;52.378;9.688;2022-10-14T12:47:18;2.00;;;1.50;;
20609;SDS011;10463;52.378;9.688;2022-10-14T12:50:24;2.03;;;1.60;;
20609;SDS011;10463;52.378;9.688;2022-10-14T12:53:19;2.20;;;1.50;;
20609;SDS011;10463;52.378;9.688;2022-10-14T12:56:08;2.73;;;1.97;;
20609;SDS011;10463;52.378;9.688;2022-10-14T12:58:55;2.00;;;1.40;;
20609;SDS011;10463;52.378;9.688;2022-10-14T13:01:44;2.40;;;1.63;;
20609;SDS011;10463;52.378;9.688;2022-10-14T13:04:29;2.03;;;1.53;;
20609;SDS011;10463;52.378;9.688;2022-10-14T13:07:36;1.90;;;1.40;;
20609;SDS011;10463;52.378;9.688;2022-10-14T13:10:30;2.23;;;1.60;;
20609;SDS011;10463;52.378;9.688;2022-10-14T13:13:51;2.37;;;1.80;;
20609;SDS011;10463;52.378;9.688;2022-10-14T13:17:25;2.20;;;1.63;;
20609;SDS011;10463;52.378;9.688;2022-10-14T13:23:42;1.70;;;1.27;;
20609;SDS011;10463;52.378;9.688;2022-10-14T13:26:36;2.03;;;1.73;;
20609;SDS011;10463;52.378;9.688;2022-10-14T13:29:30;2.43;;;1.97;;
20609;SDS011;10463;52.378;9.688;2022-10-14T13:32:30;2.10;;;1.70;;
20609;SDS011;10463;52.378;9.688;2022-10-14T13:35:22;2.80;;;2.13;;
20609;SDS011;10463;52.378;9.688;2022-10-14T13:38:12;2.57;;;1.80;;
20609;SDS011;10463;52.378;9.688;2022-10-14T13:40:58;2.43;;;2.00;;
20609;SDS011;10463;52.378;9.688;2022-10-14T13:43:44;2.27;;;1.87;;
20609;SDS011;10463;52.378;9.688;2022-10-14T13:46:32;1.93;;;1.60;;
20609;SDS011;10463;52.378;9.688;2022-10-14T13:49:28;2.30;;;1.70;;
20609;SDS011;10463;52.378;9.688;2022-10-14T13:52:19;2.63;;;1.90;;
20609;SDS011;10463;52.378;9.688;2022-10-14T13:55:15;2.30;;;1.60;;
20609;SDS011;10463;52.378;9.688;2022-10-14T13:58:10;2.50;;;1.60;;
20609;SDS011;10463;52.378;9.688;2022-10-14T14:01:00;2.90;;;1.87;;
20609;SDS011;10463;52.378;9.688;2022-10-14T14:03:51;3.40;;;1.50;;
20609;SDS011;10463;52.378;9.688;2022-10-14T14:06:42;4.23;;;1.90;;
20609;SDS011;10463;52.378;9.688;2022-10-14T14:09:30;2.73;;;1.40;;
20609;SDS011;10463;52.378;9.688;2022-10-14T14:12:16;2.40;;;1.53;;
20609;SDS011;10463;52.378;9.688;2022-10-14T14:15:02;1.67;;;1.10;;
20609;SDS011;10463;52.378;9.688;2022-10-14T14:17:48;2.27;;;1.70;;
20609;SDS011;10463;52.378;9.688;2022-10-14T14:20:34;2.00;;;1.50;;
20609;SDS011;10463;52.378;9.688;2022-10-14T14:23:21;1.93;;;1.33;;
20609;SDS011;10463;52.378;9.688;2022-10-14T14:26:05;1.77;;;1.23;;
20609;SDS011;10463;52.378;9.688;2022-10-14T14:28:50;2.00;;;1.13;;
20609;SDS011;10463;52.378;9.688;2022-10-14T14:31:35;2.23;;;1.40;;
20609;SDS011;10463;52.378;9.688;2022-10-14T14:34:21;1.70;;;1.17;;
20609;SDS011;10463;52.378;9.688;2022-10-14T14:37:13;1.90;;;1.50;;
20609;SDS011;10463;52.378;9.688;2022-10-14T14:40:02;2.37;;;1.60;;
20609;SDS011;10463;52.378;9.688;2022-10-14T14:42:50;1.70;;;1.30;;
20609;SDS011;10463;52.378;9.688;2022-10-14T14:45:41;1.80;;;1.43;;
20609;SDS011;10463;52.378;9.688;2022-10-14T14:48:29;1.80;;;1.10;;
20609;SDS011;10463;52.378;9.688;2022-10-14T14:51:16;2.20;;;1.40;;
20609;SDS011;10463;52.378;9.688;2022-10-14T14:54:05;1.60;;;1.13;;
20609;SDS011;10463;52.378;9.688;2022-10-14T14:56:51;1.80;;;1.30;;
20609;SDS011;10463;52.378;9.688;2022-10-14T14:59:40;1.87;;;1.27;;
20609;SDS011;10463;52.378;9.688;2022-10-14T15:02:27;2.00;;;1.30;;
20609;SDS011;10463;52.378;9.688;2022-10-14T15:05:18;1.70;;;1.10;;
20609;SDS011;10463;52.378;9.688;2022-10-14T15:08:03;1.80;;;1.30;;
20609;SDS011;10463;52.378;9.688;2022-10-14T15:10:50;2.00;;;1.60;;
20609;SDS011;10463;52.378;9.688;2022-10-14T15:13:47;2.00;;;1.30;;
20609;SDS011;10463;52.378;9.688;2022-10-14T15:16:35;2.10;;;1.53;;
20609;SDS011;10463;52.378;9.688;2022-10-14T15:19:35;1.93;;;1.20;;
20609;SDS011;10463;52.378;9.688;2022-10-14T15:22:22;1.43;;;1.00;;
20609;SDS011;10463;52.378;9.688;2022-10-14T15:25:22;1.50;;;1.00;;
20609;SDS011;10463;52.378;9.688;2022-10-14T15:28:27;2.23;;;1.47;;
20609;SDS011;10463;52.378;9.688;2022-10-14T15:31:15;1.60;;;0.97;;
20609;SDS011;10463;52.378;9.688;2022-10-14T15:34:00;2.10;;;1.27;;
20609;SDS011;10463;52.378;9.688;2022-10-14T15:36:48;1.60;;;1.13;;
20609;SDS011;10463;52.378;9.688;2022-10-14T15:39:34;1.50;;;1.10;;
20609;SDS011;10463;52.378;9.688;2022-10-14T15:42:19;1.80;;;1.10;;
20609;SDS011;10463;52.378;9.688;2022-10-14T15:45:06;1.70;;;1.10;;
20609;SDS011;10463;52.378;9.688;2022-10-14T15:47:54;1.80;;;1.13;;
20609;SDS011;10463;52.378;9.688;2022-10-14T15:50:42;1.50;;;0.90;;
20609;SDS011;10463;52.378;9.688;2022-10-14T15:53:28;1.50;;;1.00;;
20609;SDS011;10463;52.378;9.688;2022-10-14T15:56:13;1.70;;;1.13;;
20609;SDS011;10463;52.378;9.688;2022-10-14T15:58:59;1.93;;;1.30;;
20609;SDS011;10463;52.378;9.688;2022-10-14T16:01:46;1.90;;;1.10;;
20609;SDS011;10463;52.378;9.688;2022-10-14T16:04:31;1.60;;;1.00;;
20609;SDS011;10463;52.378;9.688;2022-10-14T16:07:17;1.83;;;1.07;;
20609;SDS011;10463;52.378;9.688;2022-10-14T16:10:04;1.50;;;1.10;;
20609;SDS011;10463;52.378;9.688;2022-10-14T16:12:50;2.33;;;1.43;;
20609;SDS011;10463;52.378;9.688;2022-10-14T16:15:38;1.80;;;1.20;;
20609;SDS011;10463;52.378;9.688;2022-10-14T16:18:30;1.90;;;1.33;;
20609;SDS011;10463;52.378;9.688;2022-10-14T16:21:16;1.50;;;1.00;;
20609;SDS011;10463;52.378;9.688;2022-10-14T16:24:01;2.00;;;1.10;;
20609;SDS011;10463;52.378;9.688;2022-10-14T16:26:47;1.90;;;1.10;;
20609;SDS011;10463;52.378;9.688;2022-10-14T16:29:32;1.53;;;0.90;;
20609;SDS011;10463;52.378;9.688;2022-10-14T16:32:18;1.80;;;1.10;;
20609;SDS011;10463;52.378;9.688;2022-10-14T16:35:05;1.67;;;1.10;;
20609;SDS011;10463;52.378;9.688;2022-10-14T16:37:51;1.53;;;1.00;;
20609;SDS011;10463;52.378;9.688;2022-10-14T16:40:36;1.93;;;1.03;;
20609;SDS011;10463;52.378;9.688;2022-10-14T16:43:23;1.50;;;1.03;;
20609;SDS011;10463;52.378;9.688;2022-10-14T16:46:09;1.60;;;1.10;;
20609;SDS011;10463;52.378;9.688;2022-10-14T16:48:55;1.70;;;1.10;;
20609;SDS011;10463;52.378;9.688;2022-10-14T16:51:42;2.33;;;1.10;;
20609;SDS011;10463;52.378;9.688;2022-10-14T16:54:27;1.97;;;1.20;;
20609;SDS011;10463;52.378;9.688;2022-10-14T16:57:13;1.83;;;1.03;;
20609;SDS011;10463;52.378;9.688;2022-10-14T16:59:58;1.93;;;1.30;;
20609;SDS011;10463;52.378;9.688;2022-10-14T17:02:43;2.00;;;1.27;;
20609;SDS011;10463;52.378;9.688;2022-10-14T17:05:28;1.80;;;1.27;;
20609;SDS011;10463;52.378;9.688;2022-10-14T17:08:15;1.50;;;1.07;;
20609;SDS011;10463;52.378;9.688;2022-10-14T17:11:04;1.50;;;1.20;;
20609;SDS011;10463;52.378;9.688;2022-10-14T17:13:50;1.77;;;1.10;;
20609;SDS011;10463;52.378;9.688;2022-10-14T17:16:36;2.03;;;1.30;;